OMRK/RKT METAR and TAF weather

Enter ICAO airport designator
Station Type Date Time Source
OMRK METAR 2020/07/08 02:00 UTC NOAA

OMRK 080200Z 30005KT CAVOK 31/27 Q0997 A2945


Station Type Date Time Source
OMRK Decoded METAR 2020/07/08 02:00 UTC NOAA

Ras Al Khaimah International Airport, United Arab Emirates (OMRK) 25-37N 055-56E 31M
Jul 07, 2020 - 10:00 PM EDT / 2020.07.08 0200 UTC
Wind: from the WNW (300 degrees) at 6 MPH (5 KT):0
Visibility: greater than 7 mile(s):0
Temperature: 87 F (31 C)
Heat index: 102.4 F (39.1 C):1
Dew Point: 80 F (27 C)
Relative Humidity: 79%
Pressure (altimeter): 29.45 in. Hg (997 hPa)
ob: OMRK 080200Z 30005KT CAVOK 31/27 Q0997 A2945
cycle: 2

Station Type Date Time Source
OMRK TAF 2020/07/07 18:02 UTC NOAA

TAF OMRK 071659Z 0718/0900 09007KT CAVOK PROB30
TEMPO 0802/0811 10018G28KT 4000 BLDU
BECMG 0810/0812 03012KT
BECMG 0814/0816 10007KT

Example: see airport list